createdAt,value
2018-06-23T00:00:50.965Z,96.74
2018-06-23T00:03:19.300Z,96.33
2018-06-23T00:05:48.470Z,97.64
2018-06-23T00:08:16.780Z,98.87
2018-06-23T00:10:45.837Z,99.34
2018-06-23T00:13:14.489Z,100.00
2018-06-23T00:15:42.762Z,100.00
2018-06-23T00:18:12.185Z,100.00
2018-06-23T00:20:40.516Z,100.00
2018-06-23T00:23:08.927Z,100.00
2018-06-23T00:25:42.633Z,100.00
2018-06-23T00:28:11.847Z,100.00
2018-06-23T00:30:40.199Z,100.00
2018-06-23T00:33:08.453Z,100.00
2018-06-23T00:35:37.473Z,100.00
2018-06-23T00:38:05.782Z,100.00
2018-06-23T00:40:34.091Z,100.00
2018-06-23T00:43:02.415Z,100.00
2018-06-23T00:45:30.744Z,100.00
2018-06-23T00:47:59.075Z,100.00
2018-06-23T00:50:27.396Z,100.00
2018-06-23T00:52:55.881Z,100.00
2018-06-23T00:55:24.303Z,100.00
2018-06-23T00:57:52.631Z,100.00
2018-06-23T01:00:21.014Z,100.00
2018-06-23T01:02:49.293Z,100.00
2018-06-23T01:05:17.566Z,100.00
2018-06-23T01:07:46.072Z,100.00
2018-06-23T01:10:14.339Z,100.00
2018-06-23T01:12:42.961Z,100.00
2018-06-23T01:15:11.559Z,100.00
2018-06-23T01:17:39.877Z,100.00
2018-06-23T01:20:08.166Z,100.00
2018-06-23T01:22:36.532Z,100.00
2018-06-23T01:25:05.085Z,100.00
2018-06-23T01:27:33.389Z,100.00
2018-06-23T01:30:01.981Z,100.00
2018-06-23T01:32:30.342Z,100.00
2018-06-23T01:34:58.646Z,100.00
2018-06-23T01:40:22.177Z,100.00
2018-06-23T01:42:50.482Z,100.00
2018-06-23T01:45:18.832Z,100.00
2018-06-23T01:47:47.215Z,100.00
2018-06-23T01:50:15.601Z,100.00
2018-06-23T01:52:43.974Z,100.00
2018-06-23T01:55:12.304Z,100.00
2018-06-23T01:57:40.754Z,100.00
2018-06-23T02:00:09.131Z,100.00
2018-06-23T02:02:37.592Z,100.00
2018-06-23T02:05:06.046Z,100.00
2018-06-23T02:07:34.370Z,100.00
2018-06-23T02:10:02.755Z,100.00
2018-06-23T02:12:31.176Z,100.00
2018-06-23T02:15:05.538Z,100.00
2018-06-23T02:17:39.075Z,100.00
2018-06-23T02:20:12.807Z,100.00
2018-06-23T02:22:46.253Z,100.00
2018-06-23T02:25:19.866Z,100.00
2018-06-23T02:27:53.418Z,100.00
2018-06-23T02:30:27.194Z,100.00
2018-06-23T02:32:55.918Z,100.00
2018-06-23T02:35:25.166Z,100.00
2018-06-23T02:37:53.618Z,100.00
2018-06-23T02:40:21.978Z,100.00
2018-06-23T02:42:50.308Z,100.00
2018-06-23T02:45:18.709Z,100.00
2018-06-23T02:47:47.719Z,100.00
2018-06-23T02:50:16.020Z,100.00
2018-06-23T02:52:44.311Z,100.00
2018-06-23T02:55:12.645Z,100.00
2018-06-23T02:57:41.020Z,100.00
2018-06-23T03:00:09.360Z,100.00
2018-06-23T03:02:37.838Z,100.00
2018-06-23T03:05:06.212Z,100.00
2018-06-23T03:07:34.595Z,100.00
2018-06-23T03:10:02.950Z,100.00
2018-06-23T03:12:31.296Z,100.00
2018-06-23T03:14:59.642Z,100.00
2018-06-23T03:17:27.974Z,100.00
2018-06-23T03:19:56.348Z,100.00
2018-06-23T03:22:24.673Z,100.00
2018-06-23T03:24:52.994Z,100.00
2018-06-23T03:27:21.323Z,100.00
2018-06-23T03:29:49.655Z,100.00
2018-06-23T03:32:17.944Z,100.00
2018-06-23T03:34:46.350Z,100.00
2018-06-23T03:37:14.721Z,100.00
2018-06-23T03:39:43.068Z,100.00
2018-06-23T03:42:11.463Z,100.00
2018-06-23T03:44:39.809Z,100.00
2018-06-23T03:47:08.168Z,100.00
2018-06-23T03:49:36.532Z,100.00
2018-06-23T03:52:04.848Z,100.00
2018-06-23T03:54:33.378Z,100.00
2018-06-23T03:57:01.813Z,100.00
2018-06-23T03:59:30.156Z,100.00
2018-06-23T04:01:58.494Z,100.00
2018-06-23T04:04:26.906Z,100.00
2018-06-23T04:06:55.276Z,100.00
2018-06-23T04:09:23.675Z,100.00
2018-06-23T04:11:52.037Z,100.00
2018-06-23T04:14:20.363Z,100.00
2018-06-23T04:16:48.819Z,100.00
2018-06-23T04:19:17.210Z,100.00
2018-06-23T04:21:45.529Z,100.00
2018-06-23T04:24:13.851Z,100.00
2018-06-23T04:26:42.194Z,100.00
2018-06-23T04:29:10.527Z,100.00
2018-06-23T04:31:39.303Z,100.00
2018-06-23T04:34:07.671Z,100.00
2018-06-23T04:36:36.598Z,100.00
2018-06-23T04:39:07.184Z,100.00
2018-06-23T04:41:35.825Z,100.00
2018-06-23T04:44:04.237Z,100.00
2018-06-23T04:46:32.621Z,100.00
2018-06-23T04:49:01.052Z,100.00
2018-06-23T04:51:29.382Z,100.00
2018-06-23T04:53:57.784Z,100.00
2018-06-23T04:56:26.120Z,100.00
2018-06-23T04:58:54.497Z,100.00
2018-06-23T05:01:22.905Z,100.00
2018-06-23T05:03:51.257Z,100.00
2018-06-23T05:06:20.507Z,100.00
2018-06-23T05:08:58.110Z,100.00
2018-06-23T05:11:26.559Z,100.00
2018-06-23T05:13:54.930Z,100.00
2018-06-23T05:16:23.341Z,100.00
2018-06-23T05:18:51.687Z,100.00
2018-06-23T05:21:20.137Z,99.23
2018-06-23T05:23:48.490Z,99.56
2018-06-23T05:26:16.846Z,100.00
2018-06-23T05:28:45.233Z,100.00
2018-06-23T05:31:13.592Z,100.00
2018-06-23T05:33:42.032Z,99.95
2018-06-23T05:36:10.366Z,100.00
2018-06-23T05:38:38.747Z,100.00
2018-06-23T05:41:07.101Z,100.00
2018-06-23T05:43:35.523Z,100.00
2018-06-23T05:46:04.011Z,99.05
2018-06-23T05:48:32.385Z,100.00
2018-06-23T05:51:00.737Z,99.78
2018-06-23T05:53:29.160Z,99.19
2018-06-23T05:55:57.815Z,98.55
2018-06-23T05:58:26.210Z,97.38
2018-06-23T06:00:54.588Z,95.70
2018-06-23T06:03:23.159Z,94.69
2018-06-23T06:05:51.543Z,91.74
2018-06-23T06:08:19.915Z,90.63
2018-06-23T06:10:48.229Z,90.22
2018-06-23T06:13:16.616Z,89.22
2018-06-23T06:15:45.541Z,88.77
2018-06-23T06:18:13.896Z,89.28
2018-06-23T06:20:42.312Z,88.03
2018-06-23T06:23:10.711Z,86.67
2018-06-23T06:25:39.050Z,87.27
2018-06-23T06:28:08.362Z,85.47
2018-06-23T06:30:36.694Z,82.97
2018-06-23T06:33:05.034Z,82.20
2018-06-23T06:35:33.451Z,80.28
2018-06-23T06:38:01.801Z,79.53
2018-06-23T06:40:30.085Z,80.75
2018-06-23T06:42:58.536Z,79.28
2018-06-23T06:45:26.898Z,78.50
2018-06-23T06:47:55.235Z,78.89
2018-06-23T06:50:23.636Z,78.89
2018-06-23T06:52:52.288Z,75.20
2018-06-23T06:55:20.621Z,74.18
2018-06-23T06:57:48.983Z,74.61
2018-06-23T07:00:17.378Z,73.39
2018-06-23T07:02:45.747Z,72.95
2018-06-23T07:05:14.158Z,70.53
2018-06-23T07:07:42.558Z,69.35
2018-06-23T07:10:11.509Z,68.55
2018-06-23T07:12:39.854Z,68.17
2018-06-23T07:15:12.127Z,65.39
2018-06-23T07:17:40.899Z,61.27
2018-06-23T07:20:09.354Z,62.01
2018-06-23T07:22:37.840Z,57.17
2018-06-23T07:25:06.367Z,56.27
2018-06-23T07:27:34.812Z,57.13
2018-06-23T07:30:03.694Z,57.37
2018-06-23T07:32:32.132Z,53.99
2018-06-23T07:35:00.649Z,57.17
2018-06-23T07:37:29.006Z,58.74
2018-06-23T07:39:57.430Z,59.42
2018-06-23T07:42:26.354Z,59.01
2018-06-23T07:44:55.289Z,60.95
2018-06-23T07:47:23.717Z,58.33
2018-06-23T07:49:52.109Z,60.42
2018-06-23T07:52:20.615Z,60.54
2018-06-23T07:54:49.496Z,54.08
2018-06-23T07:57:18.231Z,58.31
2018-06-23T07:59:46.819Z,52.95
2018-06-23T08:02:15.368Z,54.45
2018-06-23T08:04:43.842Z,53.70
2018-06-23T08:07:12.232Z,51.83
2018-06-23T08:09:40.577Z,48.15
2018-06-23T08:12:08.892Z,49.90
2018-06-23T08:14:37.899Z,50.49
2018-06-23T08:17:06.393Z,50.69
2018-06-23T08:19:34.995Z,50.30
2018-06-23T08:22:03.420Z,53.25
2018-06-23T08:24:31.794Z,46.41
2018-06-23T08:27:00.367Z,46.67
2018-06-23T08:29:29.025Z,49.41
2018-06-23T08:31:57.453Z,47.84
2018-06-23T08:34:25.868Z,48.26
2018-06-23T08:36:54.239Z,47.93
2018-06-23T08:39:22.739Z,47.45
2018-06-23T08:41:51.234Z,47.62
2018-06-23T08:44:19.627Z,48.10
2018-06-23T08:46:49.049Z,47.96
2018-06-23T08:49:17.461Z,49.81
2018-06-23T08:51:46.889Z,49.82
2018-06-23T08:54:15.253Z,49.74
2018-06-23T08:56:43.774Z,47.66
2018-06-23T09:00:21.223Z,44.81
2018-06-23T09:02:49.856Z,45.17
2018-06-23T09:05:21.990Z,43.25
2018-06-23T09:07:50.478Z,43.06
2018-06-23T09:10:19.974Z,43.62
2018-06-23T09:12:48.342Z,44.12
2018-06-23T09:15:16.792Z,44.91
2018-06-23T09:17:45.287Z,46.24
2018-06-23T09:20:13.817Z,46.75
2018-06-23T09:22:42.241Z,47.74
2018-06-23T09:25:10.754Z,47.38
2018-06-23T09:27:39.333Z,48.75
2018-06-23T09:30:07.902Z,48.67
2018-06-23T09:32:36.317Z,46.98
2018-06-23T09:35:04.645Z,46.84
2018-06-23T09:37:33.186Z,43.96
2018-06-23T09:40:01.537Z,42.84
2018-06-23T09:42:29.858Z,45.03
2018-06-23T09:44:58.272Z,44.92
2018-06-23T09:47:26.810Z,46.94
2018-06-23T09:49:55.222Z,45.33
2018-06-23T09:52:23.610Z,45.72
2018-06-23T09:54:52.073Z,44.62
2018-06-23T09:57:20.427Z,44.35
2018-06-23T09:59:48.930Z,44.43
2018-06-23T10:02:17.292Z,43.48
2018-06-23T10:04:45.634Z,43.04
2018-06-23T10:07:14.143Z,40.70
2018-06-23T10:09:42.472Z,39.29
2018-06-23T10:12:10.949Z,38.57
2018-06-23T10:14:39.388Z,40.15
2018-06-23T10:17:07.859Z,39.78
2018-06-23T10:19:36.195Z,41.88
2018-06-23T10:22:04.569Z,42.66
2018-06-23T10:24:33.203Z,44.19
2018-06-23T10:27:01.940Z,44.79
2018-06-23T10:29:33.588Z,40.85
2018-06-23T10:32:05.001Z,40.91
2018-06-23T10:34:33.469Z,39.44
2018-06-23T10:37:01.971Z,39.33
2018-06-23T10:39:32.573Z,37.51
2018-06-23T10:42:01.484Z,37.40
2018-06-23T10:44:29.819Z,38.01
2018-06-23T10:46:58.107Z,37.93
2018-06-23T10:49:26.393Z,38.17
2018-06-23T10:51:54.659Z,37.60
2018-06-23T10:54:22.936Z,35.70
2018-06-23T10:56:51.255Z,37.21
2018-06-23T10:59:19.586Z,37.22
2018-06-23T11:01:48.018Z,40.39
2018-06-23T11:04:16.317Z,39.91
2018-06-23T11:06:44.715Z,41.44
2018-06-23T11:09:13.119Z,41.08
2018-06-23T11:11:41.453Z,42.60
2018-06-23T11:14:09.784Z,40.00
2018-06-23T11:16:38.068Z,41.00
2018-06-23T11:19:06.489Z,41.91
2018-06-23T11:21:34.812Z,41.08
2018-06-23T11:24:03.184Z,41.12
2018-06-23T11:26:31.473Z,41.24
2018-06-23T11:28:59.791Z,39.94
2018-06-23T11:31:28.079Z,38.57
2018-06-23T11:33:56.472Z,39.10
2018-06-23T11:36:24.939Z,39.50
2018-06-23T11:38:53.225Z,35.80
2018-06-23T11:41:21.551Z,36.01
2018-06-23T11:43:50.058Z,35.60
2018-06-23T11:46:18.373Z,38.80
2018-06-23T11:48:46.637Z,40.27
2018-06-23T11:51:14.980Z,40.06
2018-06-23T11:53:43.328Z,39.00
2018-06-23T11:56:12.282Z,37.60
2018-06-23T11:58:41.203Z,35.12
2018-06-23T12:01:10.851Z,35.52
2018-06-23T12:03:39.199Z,37.71
2018-06-23T12:06:07.531Z,38.35
2018-06-23T12:08:37.675Z,32.34
2018-06-23T12:11:06.277Z,31.35
2018-06-23T12:13:34.625Z,30.27
2018-06-23T12:16:02.981Z,27.32
2018-06-23T12:18:31.432Z,27.84
2018-06-23T12:20:59.790Z,28.27
2018-06-23T12:23:28.126Z,26.53
2018-06-23T12:25:56.735Z,27.69
2018-06-23T12:28:25.072Z,27.27
2018-06-23T12:30:53.625Z,25.82
2018-06-23T12:33:21.909Z,26.33
2018-06-23T12:35:50.234Z,24.92
2018-06-23T12:40:47.645Z,22.69
2018-06-23T12:43:16.025Z,20.81
2018-06-23T12:45:44.333Z,21.46
2018-06-23T12:48:12.681Z,23.15
2018-06-23T12:50:40.966Z,21.62
2018-06-23T12:53:09.329Z,20.23
2018-06-23T12:55:37.679Z,21.18
2018-06-23T12:58:06.028Z,24.31
2018-06-23T13:00:34.311Z,24.18
2018-06-23T13:03:02.675Z,23.75
2018-06-23T13:05:30.979Z,23.79
2018-06-23T13:07:59.329Z,24.45
2018-06-23T13:10:27.724Z,23.07
2018-06-23T13:12:56.108Z,22.91
2018-06-23T13:15:24.481Z,22.27
2018-06-23T13:17:52.798Z,21.76
2018-06-23T13:20:21.175Z,22.60
2018-06-23T13:22:50.099Z,22.37
2018-06-23T13:25:18.442Z,22.99
2018-06-23T13:27:46.775Z,21.19
2018-06-23T13:30:15.154Z,18.63
2018-06-23T13:32:43.588Z,18.17
2018-06-23T13:35:12.144Z,17.93
2018-06-23T13:37:40.501Z,17.05
2018-06-23T13:40:08.981Z,18.28
2018-06-23T13:42:37.328Z,19.80
2018-06-23T13:45:06.229Z,18.40
2018-06-23T13:47:34.519Z,17.47
2018-06-23T13:50:03.132Z,16.79
2018-06-23T13:52:31.552Z,18.02
2018-06-23T13:54:59.957Z,18.77
2018-06-23T13:57:28.371Z,16.31
2018-06-23T13:59:56.750Z,16.45
2018-06-23T14:02:25.133Z,17.99
2018-06-23T14:04:53.556Z,17.87
2018-06-23T14:07:22.006Z,17.58
2018-06-23T14:09:50.393Z,19.61
2018-06-23T14:12:18.748Z,18.23
2018-06-23T14:14:47.073Z,15.49
2018-06-23T14:17:15.522Z,15.68
2018-06-23T14:19:43.910Z,15.29
2018-06-23T14:22:12.332Z,14.07
2018-06-23T14:24:40.589Z,14.66
2018-06-23T14:27:08.872Z,14.08
2018-06-23T14:29:37.369Z,15.12
2018-06-23T14:32:05.924Z,15.70
2018-06-23T14:34:34.064Z,16.99
2018-06-23T14:37:02.700Z,17.77
2018-06-23T14:39:31.147Z,19.44
2018-06-23T14:41:59.628Z,21.76
2018-06-23T14:44:28.016Z,22.78
2018-06-23T14:46:56.454Z,18.95
2018-06-23T14:49:24.715Z,16.62
2018-06-23T14:51:53.171Z,15.81
2018-06-23T14:54:21.684Z,14.95
2018-06-23T14:56:50.129Z,12.93
2018-06-23T14:59:18.476Z,13.74
2018-06-23T15:01:46.927Z,14.03
2018-06-23T15:04:15.387Z,14.42
2018-06-23T15:06:43.784Z,14.22
2018-06-23T15:09:23.437Z,13.54
2018-06-23T15:12:02.868Z,13.64
2018-06-23T15:14:31.292Z,13.14
2018-06-23T15:16:59.636Z,13.11
2018-06-23T15:19:28.188Z,12.88
2018-06-23T15:21:56.690Z,13.73
2018-06-23T15:24:25.231Z,13.71
2018-06-23T15:26:53.618Z,12.93
2018-06-23T15:29:22.586Z,13.26
2018-06-23T15:31:50.309Z,13.37
2018-06-23T15:34:18.641Z,13.83
2018-06-23T15:36:46.983Z,13.13
2018-06-23T15:39:15.529Z,16.72
2018-06-23T15:41:43.907Z,16.17
2018-06-23T15:44:12.273Z,12.88
2018-06-23T15:46:40.644Z,9.53
2018-06-23T15:49:08.902Z,9.79
2018-06-23T15:51:37.219Z,12.01
2018-06-23T15:54:05.898Z,13.05
2018-06-23T15:56:34.359Z,12.10
2018-06-23T15:59:02.715Z,10.87
2018-06-23T16:01:31.580Z,12.92
2018-06-23T16:03:59.940Z,12.40
2018-06-23T16:06:28.321Z,13.44
2018-06-23T16:08:56.652Z,12.02
2018-06-23T16:11:24.952Z,9.86
2018-06-23T16:13:53.248Z,11.63
2018-06-23T16:16:21.588Z,15.21
2018-06-23T16:18:49.914Z,14.21
2018-06-23T16:21:18.265Z,17.04
2018-06-23T16:23:46.513Z,17.29
2018-06-23T16:26:14.920Z,16.12
2018-06-23T16:28:43.208Z,19.50
2018-06-23T16:31:11.824Z,21.95
2018-06-23T16:33:40.086Z,21.25
2018-06-23T16:36:08.497Z,19.79
2018-06-23T16:38:36.948Z,19.39
2018-06-23T16:41:05.309Z,24.07
2018-06-23T16:43:33.617Z,28.30
2018-06-23T16:46:01.994Z,31.44
2018-06-23T16:48:30.355Z,33.50
2018-06-23T16:50:58.667Z,34.84
2018-06-23T16:53:27.073Z,35.63
2018-06-23T16:55:55.419Z,35.01
2018-06-23T16:58:23.742Z,35.08
2018-06-23T17:00:52.159Z,35.99
2018-06-23T17:03:20.476Z,36.05
2018-06-23T17:05:48.787Z,36.58
2018-06-23T17:08:17.365Z,36.71
2018-06-23T17:10:46.789Z,38.44
2018-06-23T17:13:15.157Z,37.27
2018-06-23T17:15:43.600Z,35.69
2018-06-23T17:18:12.109Z,30.83
2018-06-23T17:20:40.435Z,31.00
2018-06-23T17:23:09.379Z,26.23
2018-06-23T17:25:38.040Z,30.43
2018-06-23T17:28:06.759Z,33.20
2018-06-23T17:30:35.309Z,36.92
2018-06-23T17:33:03.827Z,35.99
2018-06-23T17:35:32.283Z,36.84
2018-06-23T17:38:00.738Z,37.45
2018-06-23T17:40:29.205Z,38.05
2018-06-23T17:42:57.630Z,38.20
2018-06-23T17:45:26.106Z,38.77
2018-06-23T17:47:54.646Z,38.87
2018-06-23T17:50:23.205Z,35.49
2018-06-23T17:52:51.521Z,35.79
2018-06-23T17:55:20.203Z,37.04
2018-06-23T17:57:49.846Z,37.76
2018-06-23T18:00:18.073Z,39.80
2018-06-23T18:02:47.036Z,40.92
2018-06-23T18:05:15.481Z,42.34
2018-06-23T18:07:43.816Z,43.03
2018-06-23T18:10:13.567Z,43.09
2018-06-23T18:12:42.381Z,43.51
2018-06-23T18:15:11.121Z,44.47
2018-06-23T18:17:39.533Z,45.05
2018-06-23T18:20:09.015Z,46.24
2018-06-23T18:22:37.951Z,46.66
2018-06-23T18:25:06.554Z,47.52
2018-06-23T18:27:34.838Z,48.44
2018-06-23T18:30:03.804Z,48.15
2018-06-23T18:32:32.160Z,48.57
2018-06-23T18:35:00.681Z,49.40
2018-06-23T18:37:28.948Z,49.49
2018-06-23T18:39:57.273Z,50.74
2018-06-23T18:42:26.005Z,51.69
2018-06-23T18:44:54.409Z,51.65
2018-06-23T18:47:22.816Z,52.00
2018-06-23T18:49:51.188Z,52.69
2018-06-23T18:52:19.516Z,54.57
2018-06-23T18:54:47.807Z,51.66
2018-06-23T18:57:16.186Z,51.94
2018-06-23T18:59:44.669Z,52.61
2018-06-23T19:02:13.084Z,53.30
2018-06-23T19:04:41.436Z,55.09
2018-06-23T19:07:09.695Z,54.72
2018-06-23T19:09:38.087Z,54.84
2018-06-23T19:12:06.487Z,54.70
2018-06-23T19:14:34.973Z,55.05
2018-06-23T19:17:03.410Z,55.62
2018-06-23T19:19:31.698Z,56.58
2018-06-23T19:22:00.155Z,57.21
2018-06-23T19:24:28.476Z,57.39
2018-06-23T19:26:56.860Z,57.99
2018-06-23T19:29:25.441Z,58.49
2018-06-23T19:31:53.959Z,58.81
2018-06-23T19:34:22.416Z,59.03
2018-06-23T19:36:50.899Z,58.82
2018-06-23T19:39:19.218Z,59.83
2018-06-23T19:41:47.551Z,59.75
2018-06-23T19:44:15.975Z,59.64
2018-06-23T19:46:44.278Z,59.33
2018-06-23T19:49:12.707Z,59.70
2018-06-23T19:51:46.121Z,59.20
2018-06-23T19:54:14.603Z,58.92
2018-06-23T19:56:43.053Z,59.50
2018-06-23T19:59:11.333Z,60.06
2018-06-23T20:01:39.778Z,60.93
2018-06-23T20:04:08.183Z,61.53
2018-06-23T20:06:39.929Z,61.53
2018-06-23T20:09:08.863Z,61.78
2018-06-23T20:14:41.748Z,62.73
2018-06-23T20:17:11.028Z,63.54
2018-06-23T20:19:39.684Z,63.71
2018-06-23T20:22:10.198Z,64.05
2018-06-23T20:24:38.546Z,64.45
2018-06-23T20:27:07.042Z,65.48
2018-06-23T20:29:37.285Z,66.22
2018-06-23T20:32:05.872Z,66.84
2018-06-23T20:34:34.316Z,66.84
2018-06-23T20:37:02.670Z,67.24
2018-06-23T20:39:31.123Z,67.54
2018-06-23T20:41:59.457Z,68.21
2018-06-23T20:44:27.933Z,69.37
2018-06-23T20:46:56.499Z,69.14
2018-06-23T20:49:24.847Z,70.50
2018-06-23T20:51:53.188Z,71.52
2018-06-23T20:54:21.526Z,71.83
2018-06-23T20:56:50.209Z,72.84
2018-06-23T20:59:19.385Z,72.59
2018-06-23T21:01:47.914Z,70.91
2018-06-23T21:04:16.367Z,70.29
2018-06-23T21:06:44.935Z,70.18
2018-06-23T21:09:13.327Z,70.24
2018-06-23T21:11:41.705Z,69.78
2018-06-23T21:14:10.120Z,68.60
2018-06-23T21:16:38.497Z,69.87
2018-06-23T21:19:06.856Z,69.98
2018-06-23T21:21:35.368Z,71.48
2018-06-23T21:24:03.789Z,70.90
2018-06-23T21:26:32.206Z,71.80
2018-06-23T21:29:00.728Z,72.23
2018-06-23T21:31:29.511Z,72.26
2018-06-23T21:33:57.971Z,73.40
2018-06-23T21:36:26.471Z,72.68
2018-06-23T21:38:54.933Z,73.07
2018-06-23T21:41:23.564Z,73.67
2018-06-23T21:43:52.027Z,72.09
2018-06-23T21:49:15.738Z,70.64
2018-06-23T21:51:44.376Z,69.99
2018-06-23T21:54:13.914Z,70.46
2018-06-23T21:56:42.567Z,69.63
2018-06-23T21:59:11.115Z,68.92
2018-06-23T22:01:39.371Z,68.72
2018-06-23T22:04:08.239Z,69.66
2018-06-23T22:06:36.762Z,69.52
2018-06-23T22:09:07.801Z,68.97
2018-06-23T22:11:36.562Z,70.84
2018-06-23T22:14:05.208Z,70.43
2018-06-23T22:16:33.804Z,70.40
2018-06-23T22:19:02.308Z,69.62
2018-06-23T22:21:31.535Z,69.67
2018-06-23T22:23:59.996Z,69.88
2018-06-23T22:26:28.487Z,71.27
2018-06-23T22:28:57.596Z,71.44
2018-06-23T22:31:25.960Z,70.70
2018-06-23T22:33:54.824Z,70.89
2018-06-23T22:36:23.488Z,70.28
2018-06-23T22:38:51.855Z,70.33
2018-06-23T22:41:20.447Z,70.80
2018-06-23T22:43:48.744Z,70.90
2018-06-23T22:46:17.125Z,71.28
2018-06-23T22:48:45.778Z,71.67
2018-06-23T22:51:14.121Z,71.47
2018-06-23T22:53:42.593Z,71.72
2018-06-23T22:56:10.952Z,74.23
2018-06-23T22:58:39.456Z,73.22
2018-06-23T23:01:07.951Z,72.45
2018-06-23T23:03:36.265Z,71.75
2018-06-23T23:06:04.770Z,71.64
2018-06-23T23:08:34.075Z,71.07
2018-06-23T23:11:02.398Z,71.72
2018-06-23T23:13:30.803Z,72.33
2018-06-23T23:15:59.152Z,74.02
2018-06-23T23:18:27.532Z,75.02
2018-06-23T23:20:55.807Z,76.24
2018-06-23T23:23:24.075Z,77.27
2018-06-23T23:25:52.442Z,77.86
2018-06-23T23:28:21.236Z,78.75
2018-06-23T23:30:51.415Z,79.29
2018-06-23T23:33:21.531Z,78.70
2018-06-23T23:35:50.258Z,79.63
2018-06-23T23:38:18.675Z,79.45
2018-06-23T23:40:47.186Z,79.61
2018-06-23T23:43:15.501Z,80.56
2018-06-23T23:45:43.792Z,81.23
2018-06-23T23:48:12.166Z,82.04
2018-06-23T23:50:40.516Z,82.15
2018-06-23T23:53:09.268Z,82.97
2018-06-23T23:55:38.336Z,83.38
2018-06-23T23:58:06.686Z,83.89
